Time;durP1;ratioP1;P1;durP2;ratioP2;P2;SDS_P1;SDS_P2;PMS_P1;PMS_P2;Temp;Humidity;BMP_temperature;BMP_pressure;BME280_temperature;BME280_humidity;BME280_pressure;Samples;Min_cycle;Max_cycle;Signal;HPM_P1;HPM_P2
2022/12/07 00:02:54;;;;;;;13.88;6.32;;;;;;;3.64;100.00;101113.25;6222506;28;20057;-72
2022/12/07 00:05:59;;;;;;;14.80;7.20;;;;;;;3.66;100.00;101116.66;6222046;28;20042;-72
2022/12/07 00:09:01;;;;;;;13.90;7.53;;;;;;;3.67;100.00;101114.03;6222396;28;20058;-72
2022/12/07 00:12:03;;;;;;;15.35;7.13;;;;;;;3.70;100.00;101101.00;6221935;28;20050;-71
2022/12/07 00:15:05;;;;;;;20.08;6.63;;;;;;;3.70;100.00;101105.34;6221723;28;20054;-72
2022/12/07 00:18:06;;;;;;;19.15;8.45;;;;;;;3.69;100.00;101104.47;6222136;28;20076;-72
2022/12/07 00:21:11;;;;;;;19.23;8.07;;;;;;;3.71;100.00;101099.25;6221997;28;20053;-72
2022/12/07 00:24:13;;;;;;;21.83;8.75;;;;;;;3.67;100.00;101102.78;6221986;28;20057;-71
2022/12/07 00:27:14;;;;;;;17.20;7.28;;;;;;;3.68;100.00;101094.09;6222090;28;20050;-72
2022/12/07 00:30:16;;;;;;;19.90;8.45;;;;;;;3.73;100.00;101095.75;6221758;28;20053;-72
2022/12/07 00:33:17;;;;;;;19.52;8.35;;;;;;;3.81;100.00;101104.25;6222262;28;20065;-71
2022/12/07 00:36:22;;;;;;;19.30;8.60;;;;;;;3.80;100.00;101094.72;6221869;28;20065;-72
2022/12/07 00:39:23;;;;;;;18.60;8.65;;;;;;;3.81;100.00;101088.66;6221810;28;20053;-72
2022/12/07 00:42:25;;;;;;;20.85;9.05;;;;;;;3.87;100.00;101092.88;6221593;28;20415;-72
2022/12/07 00:45:26;;;;;;;20.95;8.63;;;;;;;3.89;100.00;101085.03;6221697;28;20042;-72
2022/12/07 00:48:28;;;;;;;22.50;8.82;;;;;;;3.95;100.00;101080.56;6221798;28;20057;-72
2022/12/07 00:51:31;;;;;;;19.25;8.38;;;;;;;3.93;100.00;101079.72;6221569;28;20050;-72
2022/12/07 00:54:32;;;;;;;13.68;7.15;;;;;;;3.88;100.00;101068.56;6221849;28;20073;-73
2022/12/07 00:57:34;;;;;;;20.83;8.70;;;;;;;3.89;100.00;101066.81;6221449;28;20046;-72
2022/12/07 01:00:36;;;;;;;15.85;7.82;;;;;;;3.93;100.00;101061.53;6221836;28;20057;-72
2022/12/07 01:03:38;;;;;;;16.98;8.90;;;;;;;3.89;100.00;101053.81;6221562;28;20057;-72
2022/12/07 01:06:41;;;;;;;20.52;8.15;;;;;;;3.82;100.00;101063.50;6221652;28;20046;-72
2022/12/07 01:09:43;;;;;;;16.50;7.70;;;;;;;3.76;100.00;101066.22;6221335;28;20054;-72
2022/12/07 01:12:44;;;;;;;15.55;7.68;;;;;;;3.73;100.00;101058.50;6221516;28;20065;-72
2022/12/07 01:15:46;;;;;;;14.52;7.13;;;;;;;3.71;100.00;101061.09;6221375;28;20057;-73
2022/12/07 01:18:48;;;;;;;15.88;7.60;;;;;;;3.70;100.00;101066.34;6221300;28;20153;-72
2022/12/07 01:21:51;;;;;;;15.48;7.20;;;;;;;3.65;100.00;101068.19;6221494;28;20046;-72
2022/12/07 01:24:52;;;;;;;17.58;7.60;;;;;;;3.61;100.00;101066.53;6223013;28;20053;-72
2022/12/07 01:27:54;;;;;;;18.65;7.65;;;;;;;3.60;100.00;101067.41;6225948;28;20041;-72
2022/12/07 01:30:57;;;;;;;18.63;6.57;;;;;;;3.60;100.00;101067.41;6225612;28;20072;-73
2022/12/07 01:34:00;;;;;;;16.35;7.07;;;;;;;3.60;100.00;101059.63;6225572;28;20425;-72
2022/12/07 01:37:03;;;;;;;14.40;7.90;;;;;;;3.61;100.00;101061.34;6225554;28;20045;-72
2022/12/07 01:40:06;;;;;;;13.75;6.70;;;;;;;3.58;100.00;101058.78;6225497;28;20054;-72
2022/12/07 01:43:15;;;;;;;15.27;7.10;;;;;;;3.57;100.00;101060.53;6225596;28;20049;-72
2022/12/07 01:46:17;;;;;;;17.23;8.65;;;;;;;3.54;100.00;101060.56;6225447;28;20046;-72
2022/12/07 01:49:26;;;;;;;13.00;6.53;;;;;;;3.56;100.00;101057.06;6225423;28;20133;-72
2022/12/07 01:52:33;;;;;;;14.48;6.45;;;;;;;3.58;100.00;101056.19;6225465;28;20061;-72
2022/12/07 01:55:38;;;;;;;13.80;6.03;;;;;;;3.51;100.00;101058.06;6225059;28;20414;-72
2022/12/07 01:58:39;;;;;;;16.20;7.38;;;;;;;3.52;100.00;101051.97;6225116;28;20061;-73
2022/12/07 02:01:41;;;;;;;19.70;7.30;;;;;;;3.45;100.00;101048.66;6224973;28;20049;-73
2022/12/07 02:04:42;;;;;;;12.38;5.13;;;;;;;3.42;100.00;101043.50;6224870;28;20061;-72
2022/12/07 02:07:48;;;;;;;13.60;5.95;;;;;;;3.45;100.00;101045.16;6224910;28;20054;-72
2022/12/07 02:10:50;;;;;;;10.13;5.45;;;;;;;3.43;100.00;101046.94;6224741;28;20525;-72
2022/12/07 02:13:52;;;;;;;11.32;6.10;;;;;;;3.42;100.00;101034.84;6224884;28;20060;-72
2022/12/07 02:17:06;;;;;;;12.82;4.72;;;;;;;3.35;100.00;101035.84;6224800;28;20049;-72
2022/12/07 02:20:23;;;;;;;8.77;5.28;;;;;;;3.33;100.00;101040.22;6224674;28;20050;-72
2022/12/07 02:23:46;;;;;;;11.98;5.25;;;;;;;3.30;100.00;101030.75;6224404;28;20080;-71
2022/12/07 02:27:27;;;;;;;9.10;4.88;;;;;;;3.23;100.00;101036.94;6224563;28;20042;-72
2022/12/07 02:30:34;;;;;;;13.13;5.07;;;;;;;3.21;100.00;101041.28;6219135;28;20046;-72
2022/12/07 02:33:42;;;;;;;12.45;4.65;;;;;;;3.18;100.00;101039.63;6224381;28;20054;-72
2022/12/07 02:36:50;;;;;;;13.20;5.50;;;;;;;3.19;100.00;101035.28;6223549;28;20042;-73
2022/12/07 02:39:58;;;;;;;9.80;4.83;;;;;;;3.19;100.00;101032.69;6223854;28;20053;-72
2022/12/07 02:43:05;;;;;;;12.50;5.13;;;;;;;3.13;100.00;101035.38;6224499;28;20060;-72
2022/12/07 02:46:13;;;;;;;10.30;5.10;;;;;;;3.12;100.00;101037.13;6223972;28;20057;-72
2022/12/07 02:49:16;;;;;;;11.55;4.80;;;;;;;3.11;100.00;101038.00;6224151;28;20049;-73
2022/12/07 02:52:17;;;;;;;11.40;4.57;;;;;;;3.20;100.00;101029.19;6223687;28;20617;-73
2022/12/07 02:55:23;;;;;;;13.70;5.85;;;;;;;3.15;100.00;101036.22;6223930;28;20049;-72
2022/12/07 02:58:38;;;;;;;12.07;5.18;;;;;;;3.12;100.00;101023.28;6223619;28;20065;-73
2022/12/07 03:01:51;;;;;;;11.70;5.35;;;;;;;3.11;100.00;101026.78;6223502;28;20413;-73
2022/12/07 03:05:04;;;;;;;10.93;5.20;;;;;;;3.00;100.00;101025.22;6223560;28;20050;-72
2022/12/07 03:08:12;;;;;;;11.00;5.30;;;;;;;2.98;100.00;101026.13;6223606;28;20054;-71
2022/12/07 03:11:17;;;;;;;18.98;7.47;;;;;;;2.94;100.00;101017.53;6223361;28;20046;-73
2022/12/07 03:14:24;;;;;;;17.25;6.75;;;;;;;2.90;100.00;101020.22;6223478;28;20050;-72
2022/12/07 03:17:31;;;;;;;16.23;7.25;;;;;;;2.91;100.00;101022.81;6223146;28;20046;-73
2022/12/07 03:20:36;;;;;;;14.40;6.85;;;;;;;2.86;100.00;101019.44;6223551;28;20050;-73
2022/12/07 03:23:41;;;;;;;13.00;5.57;;;;;;;2.83;100.00;101021.22;6223089;28;20053;-73
2022/12/07 03:26:47;;;;;;;15.75;5.55;;;;;;;2.77;100.00;101027.34;6223236;28;20128;-72
2022/12/07 03:29:53;;;;;;;15.93;6.35;;;;;;;2.76;100.00;101028.22;6221677;28;20053;-73
2022/12/07 03:33:03;;;;;;;17.85;6.55;;;;;;;2.74;100.00;101027.41;6222957;28;20652;-73
2022/12/07 03:36:11;;;;;;;10.90;5.65;;;;;;;2.72;100.00;101021.38;6223226;28;20671;-73
2022/12/07 03:39:20;;;;;;;13.30;5.70;;;;;;;2.63;100.00;101013.75;6222670;28;20607;-73
2022/12/07 03:42:22;;;;;;;12.93;6.63;;;;;;;2.64;100.00;101007.69;6222980;28;20056;-72
2022/12/07 03:45:30;;;;;;;12.23;5.97;;;;;;;2.65;100.00;101004.22;6222566;28;20057;-72
2022/12/07 03:48:38;;;;;;;13.13;6.50;;;;;;;2.62;100.00;101001.66;6222413;28;20394;-72
2022/12/07 03:51:45;;;;;;;16.60;6.07;;;;;;;2.68;100.00;101010.22;6222477;28;20050;-73
2022/12/07 03:54:50;;;;;;;11.70;5.13;;;;;;;2.63;100.00;101014.59;6222583;28;20050;-72
2022/12/07 03:57:56;;;;;;;10.98;5.15;;;;;;;2.70;100.00;101012.78;6222465;28;20060;-72
2022/12/07 04:00:57;;;;;;;11.65;4.03;;;;;;;2.73;100.00;101026.56;6222379;28;20054;-72
2022/12/07 04:04:00;;;;;;;12.38;5.35;;;;;;;2.70;100.00;101016.22;6222356;28;20054;-72
2022/12/07 04:07:02;;;;;;;6.28;3.67;;;;;;;2.68;100.00;101018.00;6222556;28;20057;-72
2022/12/07 04:10:04;;;;;;;8.65;4.90;;;;;;;2.68;100.00;101019.72;6222098;28;20609;-72
2022/12/07 04:13:05;;;;;;;8.95;4.85;;;;;;;2.66;100.00;101011.97;6222351;28;20395;-72
2022/12/07 04:16:07;;;;;;;8.00;4.38;;;;;;;2.72;100.00;101019.63;6222156;28;20057;-72
2022/12/07 04:19:10;;;;;;;8.20;3.92;;;;;;;2.70;100.00;101028.34;6222142;28;20395;-72
2022/12/07 04:22:11;;;;;;;11.07;3.85;;;;;;;2.70;100.00;101020.56;6221876;28;20524;-72
2022/12/07 04:25:13;;;;;;;8.45;3.40;;;;;;;2.63;100.00;101017.19;6221912;28;20046;-72
2022/12/07 04:28:14;;;;;;;6.55;3.13;;;;;;;2.68;100.00;101018.00;6222192;28;20068;-73
2022/12/07 04:31:16;;;;;;;5.93;3.28;;;;;;;2.63;100.00;101024.97;6221975;28;20050;-73
2022/12/07 04:34:19;;;;;;;7.40;3.10;;;;;;;2.63;100.00;101021.53;6222034;28;20054;-73
2022/12/07 04:37:21;;;;;;;6.07;3.20;;;;;;;2.61;100.00;101025.91;6221738;28;20522;-73
2022/12/07 04:40:22;;;;;;;8.52;3.20;;;;;;;2.56;100.00;101031.16;6222018;28;20054;-72
2022/12/07 04:43:23;;;;;;;6.85;3.05;;;;;;;2.52;100.00;101021.72;6221974;28;20493;-72
2022/12/07 04:46:26;;;;;;;7.57;2.83;;;;;;;2.47;100.00;101024.38;6221507;28;20046;-72
2022/12/07 04:49:29;;;;;;;7.82;2.72;;;;;;;2.47;100.00;101018.34;6222074;28;20049;-72
2022/12/07 04:52:30;;;;;;;5.57;2.67;;;;;;;2.46;100.00;101019.22;6221577;28;20045;-72
2022/12/07 04:55:32;;;;;;;9.93;2.58;;;;;;;2.42;100.00;101015.81;6221806;28;20054;-72
2022/12/07 04:58:33;;;;;;;6.43;3.33;;;;;;;2.49;100.00;101014.81;6221544;28;20049;-73
2022/12/07 05:01:35;;;;;;;6.68;2.83;;;;;;;2.47;100.00;101014.00;6226397;28;20061;-73
2022/12/07 05:04:38;;;;;;;9.70;2.85;;;;;;;2.46;100.00;101014.88;6226183;28;20509;-73
2022/12/07 05:07:39;;;;;;;8.20;3.47;;;;;;;2.50;100.00;101013.13;6226377;28;20050;-72
2022/12/07 05:10:41;;;;;;;3.25;1.95;;;;;;;2.51;100.00;101020.84;6226472;28;20050;-72
2022/12/07 05:13:42;;;;;;;8.23;3.63;;;;;;;2.52;100.00;101030.34;6226232;28;20058;-72
2022/12/07 05:16:45;;;;;;;7.72;2.55;;;;;;;2.56;100.00;101019.94;6226272;28;20053;-72
2022/12/07 05:19:48;;;;;;;8.65;3.30;;;;;;;2.54;100.00;101020.81;6226021;28;20085;-72
2022/12/07 05:22:50;;;;;;;4.82;2.47;;;;;;;2.48;100.00;101022.63;6226147;28;20425;-72
2022/12/07 05:25:51;;;;;;;5.15;2.38;;;;;;;2.44;100.00;101019.22;6225784;28;20060;-73
2022/12/07 05:28:53;;;;;;;2.90;1.45;;;;;;;2.38;100.00;101023.66;6225886;28;20053;-72
2022/12/07 05:31:54;;;;;;;5.18;2.00;;;;;;;2.41;100.00;101018.44;6225780;28;20050;-73
2022/12/07 05:34:57;;;;;;;7.05;2.67;;;;;;;2.35;100.00;101016.78;6225705;28;20494;-72
2022/12/07 05:37:59;;;;;;;6.10;2.78;;;;;;;2.39;100.00;101023.63;6225532;28;20060;-73
2022/12/07 05:41:02;;;;;;;8.88;2.40;;;;;;;2.43;100.00;101017.53;6225826;28;20050;-72
2022/12/07 05:44:04;;;;;;;5.03;1.98;;;;;;;2.46;100.00;101019.22;6225467;28;20053;-72
2022/12/07 05:47:05;;;;;;;3.17;1.80;;;;;;;2.44;100.00;101016.63;6225973;28;20129;-72
2022/12/07 05:50:08;;;;;;;5.00;2.10;;;;;;;2.45;100.00;101017.50;6225383;28;20828;-72
2022/12/07 05:53:10;;;;;;;3.78;2.22;;;;;;;2.51;100.00;101025.19;6225608;28;20056;-73
2022/12/07 05:56:11;;;;;;;5.35;2.25;;;;;;;2.51;100.00;101013.06;6225231;28;20556;-72
2022/12/07 05:59:27;;;;;;;2.80;1.48;;;;;;;2.46;100.00;101008.84;6224887;28;20054;-72
2022/12/07 06:02:28;;;;;;;5.28;1.80;;;;;;;2.43;100.00;101009.75;6225269;28;20061;-72
2022/12/07 06:05:31;;;;;;;7.22;1.70;;;;;;;2.38;100.00;101002.91;6224743;28;20088;-72
2022/12/07 06:08:32;;;;;;;5.38;2.10;;;;;;;2.37;100.00;101007.25;6225075;28;20175;-72
2022/12/07 06:14:53;;;;;;;3.47;2.15;;;;;;;2.41;100.00;101003.72;6224687;28;20132;-72
2022/12/07 06:17:54;;;;;;;3.92;1.65;;;;;;;2.36;100.00;101000.31;6224598;28;20045;-72
2022/12/07 06:20:57;;;;;;;4.70;1.80;;;;;;;2.37;100.00;101003.81;6224482;28;20417;-72
2022/12/07 06:23:59;;;;;;;2.88;1.60;;;;;;;2.31;100.00;101004.72;6224519;28;20050;-73
2022/12/07 06:27:00;;;;;;;6.43;2.00;;;;;;;2.27;100.00;101009.13;6218715;28;20073;-72
2022/12/07 06:30:06;;;;;;;3.40;1.38;;;;;;;2.27;100.00;101011.72;6218562;28;20046;-72
2022/12/07 06:33:07;;;;;;;3.72;1.40;;;;;;;2.22;100.00;101005.72;6224624;28;20081;-72
2022/12/07 06:36:11;;;;;;;2.92;1.13;;;;;;;2.24;100.00;101003.13;6224121;28;20054;-72
2022/12/07 06:39:12;;;;;;;1.75;0.93;;;;;;;2.21;100.00;101009.22;6205716;28;20057;-72
2022/12/07 06:42:14;;;;;;;8.27;1.05;;;;;;;2.26;100.00;101015.19;6199650;28;20050;-72
2022/12/07 06:45:15;;;;;;;7.88;1.73;;;;;;;2.28;100.00;101016.03;6207311;28;20417;-72
2022/12/07 06:48:17;;;;;;;2.78;0.82;;;;;;;2.30;100.00;101013.41;6223774;28;20050;-72
2022/12/07 06:51:20;;;;;;;1.25;0.82;;;;;;;2.32;100.00;101015.97;6223957;28;20064;-72
2022/12/07 06:54:21;;;;;;;1.55;0.70;;;;;;;2.22;100.00;101010.06;6223966;28;20054;-72
2022/12/07 06:57:22;;;;;;;1.02;0.88;;;;;;;2.23;100.00;101024.75;6220591;28;20038;-72
2022/12/07 07:00:24;;;;;;;3.50;0.80;;;;;;;2.29;100.00;101022.06;6199897;28;20058;-71
2022/12/07 07:03:25;;;;;;;4.13;0.82;;;;;;;2.34;100.00;101022.84;6199359;28;20050;-72
2022/12/07 07:06:28;;;;;;;0.60;0.55;;;;;;;2.32;100.00;101016.84;6199076;28;20468;-73
2022/12/07 07:09:30;;;;;;;2.17;0.40;;;;;;;2.36;100.00;101020.22;6199450;28;20053;-72
2022/12/07 07:12:31;;;;;;;1.65;0.52;;;;;;;2.37;100.00;101014.19;6198969;28;20528;-72
2022/12/07 07:15:33;;;;;;;1.15;0.63;;;;;;;2.43;100.00;101025.31;6199016;28;20050;-72
2022/12/07 07:18:35;;;;;;;0.90;0.70;;;;;;;2.39;100.00;101020.19;6198855;28;20046;-73
2022/12/07 07:21:38;;;;;;;3.47;0.93;;;;;;;2.41;100.00;101021.03;6198529;28;20046;-73
2022/12/07 07:24:40;;;;;;;0.57;0.55;;;;;;;2.42;100.00;101030.53;6198549;28;20429;-72
2022/12/07 07:27:41;;;;;;;0.82;0.57;;;;;;;2.39;100.00;101031.41;6198942;28;20050;-72
2022/12/07 07:30:43;;;;;;;2.50;0.88;;;;;;;2.45;100.00;101028.75;6198584;28;20085;-72
2022/12/07 07:33:46;;;;;;;1.75;0.60;;;;;;;2.37;100.00;101029.75;6198575;28;20061;-72
2022/12/07 07:36:49;;;;;;;1.38;0.65;;;;;;;2.35;100.00;101029.75;6198621;28;20059;-72
2022/12/07 07:39:50;;;;;;;2.05;0.80;;;;;;;2.42;100.00;101046.94;6198497;28;20502;-71
2022/12/07 07:42:53;;;;;;;4.32;0.80;;;;;;;2.37;100.00;101033.19;6198448;28;20058;-72
2022/12/07 07:45:54;;;;;;;6.97;0.70;;;;;;;2.38;100.00;101047.00;6198644;28;20538;-72
2022/12/07 07:48:56;;;;;;;1.77;1.42;;;;;;;2.38;100.00;101049.59;6198237;28;20046;-72
2022/12/07 07:51:59;;;;;;;4.60;0.82;;;;;;;2.36;100.00;101049.59;6198265;28;20442;-73
2022/12/07 07:55:00;;;;;;;2.75;1.27;;;;;;;2.34;100.00;101046.19;6198198;28;20050;-73
2022/12/07 07:58:02;;;;;;;3.33;1.20;;;;;;;2.33;100.00;101046.22;6198129;28;20051;-72
2022/12/07 08:01:07;;;;;;;1.85;1.75;;;;;;;2.38;100.00;101047.00;6197891;28;20050;-71
2022/12/07 08:04:08;;;;;;;0.98;0.60;;;;;;;2.44;100.00;101046.91;6197987;28;20426;-72
2022/12/07 08:07:11;;;;;;;2.28;0.90;;;;;;;2.40;100.00;101037.44;6198137;28;20063;-72
2022/12/07 08:10:15;;;;;;;1.88;0.82;;;;;;;2.45;100.00;101038.25;6197759;28;20054;-72
2022/12/07 08:13:17;;;;;;;3.67;0.73;;;;;;;2.49;100.00;101047.69;6198250;28;20061;-72
2022/12/07 08:16:19;;;;;;;1.23;0.60;;;;;;;2.43;100.00;101045.19;6197706;28;20060;-72
2022/12/07 08:19:20;;;;;;;2.08;0.82;;;;;;;2.45;100.00;101057.28;6198161;28;20536;-72
2022/12/07 08:22:23;;;;;;;0.55;0.55;;;;;;;2.42;100.00;101046.94;6197947;28;20060;-72
2022/12/07 08:25:24;;;;;;;8.10;1.25;;;;;;;2.47;100.00;101046.88;6197923;28;20053;-72
2022/12/07 08:28:26;;;;;;;5.25;0.80;;;;;;;2.44;100.00;101047.75;6197705;28;20050;-72
2022/12/07 08:31:28;;;;;;;1.50;0.70;;;;;;;2.43;100.00;101045.19;6197451;28;20434;-72
2022/12/07 08:34:29;;;;;;;0.57;0.57;;;;;;;2.42;100.00;101043.50;6199175;28;20116;-72
2022/12/07 08:37:33;;;;;;;1.40;0.38;;;;;;;2.40;100.00;101040.03;6202859;28;20058;-72
2022/12/07 08:40:35;;;;;;;0.45;0.30;;;;;;;2.43;100.00;101033.09;6202726;28;20046;-72
2022/12/07 08:43:37;;;;;;;6.40;1.27;;;;;;;2.47;100.00;101032.16;6202674;28;20162;-72
2022/12/07 08:46:45;;;;;;;0.43;0.43;;;;;;;2.49;100.00;101045.09;6202597;28;20073;-73
2022/12/07 08:49:49;;;;;;;0.30;0.30;;;;;;;2.48;100.00;101046.84;6202428;28;20042;-71
2022/12/07 08:52:55;;;;;;;2.15;0.70;;;;;;;2.55;100.00;101042.44;6202607;28;20050;-71
2022/12/07 08:55:57;;;;;;;1.55;0.60;;;;;;;2.62;100.00;101041.44;6202303;28;20054;-73
2022/12/07 08:58:59;;;;;;;5.07;0.60;;;;;;;2.70;100.00;101046.50;6230861;23;20054;-72
2022/12/07 09:02:00;;;;;;;0.73;0.60;;;;;;;2.71;100.00;101050.81;6177717;28;20062;-71
2022/12/07 09:05:02;;;;;;;1.20;0.50;;;;;;;2.69;100.00;101052.59;6199377;28;20527;-71
2022/12/07 09:08:06;;;;;;;1.00;0.50;;;;;;;2.71;100.00;101048.22;6190585;28;20047;-71
2022/12/07 09:11:07;;;;;;;0.70;0.57;;;;;;;2.63;100.00;101048.31;6177730;28;20062;-72
2022/12/07 09:14:09;;;;;;;6.43;0.88;;;;;;;2.63;100.00;101043.13;6177752;28;20058;-72
2022/12/07 09:17:13;;;;;;;6.82;0.93;;;;;;;2.67;100.00;101050.00;6177657;28;20423;-71
2022/12/07 09:20:15;;;;;;;0.68;0.40;;;;;;;2.64;100.00;101051.81;6177393;28;20136;-72
2022/12/07 09:23:18;;;;;;;3.63;1.48;;;;;;;2.79;100.00;101048.94;6177767;28;20051;-72
2022/12/07 09:26:19;;;;;;;1.02;0.73;;;;;;;2.86;100.00;101049.69;6177599;28;20423;-72
2022/12/07 09:29:21;;;;;;;1.08;0.60;;;;;;;2.97;100.00;101043.44;6177339;28;20049;-72
2022/12/07 09:32:23;;;;;;;0.73;0.60;;;;;;;3.08;100.00;101045.84;6177658;28;20051;-71
2022/12/07 09:35:25;;;;;;;0.82;0.50;;;;;;;3.12;100.00;101060.50;6177343;28;20051;-72
2022/12/07 09:38:30;;;;;;;1.40;0.73;;;;;;;3.14;100.00;101068.28;6177358;28;20122;-71
2022/12/07 09:41:32;;;;;;;1.13;1.02;;;;;;;3.15;100.00;101055.25;6177103;28;20189;-71
2022/12/07 09:44:35;;;;;;;1.60;1.08;;;;;;;3.15;100.00;101068.25;6176895;28;20058;-71
2022/12/07 09:47:37;;;;;;;2.20;1.40;;;;;;;3.17;100.00;101060.41;6177050;28;20047;-71
2022/12/07 09:50:38;;;;;;;2.38;1.17;;;;;;;3.16;100.00;101074.28;6176880;28;20055;-73
2022/12/07 09:53:42;;;;;;;8.75;1.98;;;;;;;3.13;100.00;101067.38;6176824;28;20418;-73
2022/12/07 09:56:45;;;;;;;7.88;1.88;;;;;;;3.08;100.00;101061.44;6176982;28;20051;-71
2022/12/07 09:59:46;;;;;;;1.45;1.10;;;;;;;3.03;100.00;101065.84;6176502;28;20046;-72
2022/12/07 10:02:53;;;;;;;4.30;1.73;;;;;;;2.96;100.00;101075.50;6176574;28;20051;-71
2022/12/07 10:05:55;;;;;;;7.93;1.45;;;;;;;2.91;100.00;101071.25;6176688;28;20061;-71
2022/12/07 10:08:58;;;;;;;3.50;2.00;;;;;;;2.85;100.00;101059.22;6176422;28;20047;-71
2022/12/07 10:12:02;;;;;;;6.43;1.42;;;;;;;2.79;100.00;101054.13;6185724;28;20058;-71
2022/12/07 10:15:06;;;;;;;7.80;1.17;;;;;;;2.83;100.00;101055.81;6185432;28;20427;-72
2022/12/07 10:18:18;;;;;;;5.40;1.30;;;;;;;2.83;100.00;101071.38;6187410;28;20049;-72
2022/12/07 10:21:23;;;;;;;2.47;1.20;;;;;;;2.81;100.00;101083.50;6187854;28;20057;-72
2022/12/07 10:24:26;;;;;;;4.18;1.00;;;;;;;2.76;100.00;101073.19;6185765;28;20046;-71
2022/12/07 10:27:32;;;;;;;1.83;1.20;;;;;;;2.69;100.00;101061.22;6187038;28;20046;-71
2022/12/07 10:30:34;;;;;;;1.83;1.33;;;;;;;2.64;100.00;101057.84;6189721;28;20050;-72
2022/12/07 10:33:38;;;;;;;1.48;1.10;;;;;;;2.58;100.00;101052.72;6200289;28;20054;-72
2022/12/07 10:36:39;;;;;;;1.83;1.20;;;;;;;2.40;100.00;101056.47;6200068;28;20144;-73
2022/12/07 10:39:44;;;;;;;1.35;1.00;;;;;;;2.43;100.00;101051.25;6200409;28;20047;-72
2022/12/07 10:43:01;;;;;;;0.75;0.60;;;;;;;2.37;100.00;101046.16;6200313;28;20532;-72
2022/12/07 10:46:39;;;;;;;1.05;0.38;;;;;;;2.35;100.00;101018.50;6199545;28;20413;-71
2022/12/07 10:50:15;;;;;;;0.35;0.35;;;;;;;2.38;100.00;101023.66;6199669;28;20068;-71
2022/12/07 10:53:29;;;;;;;1.00;0.70;;;;;;;2.47;100.00;101023.53;6199832;28;20054;-71
2022/12/07 10:57:02;;;;;;;4.68;0.93;;;;;;;2.52;100.00;101024.31;6178862;28;20113;-71
2022/12/07 11:00:12;;;;;;;6.22;1.25;;;;;;;2.63;100.00;101017.19;6175276;28;20533;-72
2022/12/07 11:03:35;;;;;;;2.63;0.60;;;;;;;2.73;100.00;101017.94;6175195;28;20427;-71
2022/12/07 11:06:43;;;;;;;2.60;0.75;;;;;;;2.76;100.00;101007.47;6175230;28;20051;-72
2022/12/07 11:09:55;;;;;;;1.33;0.88;;;;;;;2.76;100.00;101018.69;6174943;28;20050;-72
2022/12/07 11:13:26;;;;;;;1.10;0.90;;;;;;;2.87;100.00;101010.75;6175130;28;20074;-72
2022/12/07 11:16:50;;;;;;;4.90;0.90;;;;;;;2.99;100.00;101013.13;6174967;28;20055;-72
2022/12/07 11:20:05;;;;;;;2.17;1.05;;;;;;;3.10;100.00;101012.09;6174753;28;20414;-72
2022/12/07 11:23:20;;;;;;;2.65;0.90;;;;;;;3.25;100.00;101004.84;6175016;28;20054;-72
2022/12/07 11:26:42;;;;;;;0.77;0.63;;;;;;;3.35;100.00;101002.06;6174649;28;20050;-73
2022/12/07 11:30:03;;;;;;;2.72;1.40;;;;;;;3.41;100.00;101000.22;6174635;28;20047;-71
2022/12/07 11:33:28;;;;;;;1.23;0.98;;;;;;;3.48;100.00;100998.34;6174637;28;20077;-73
2022/12/07 11:36:41;;;;;;;0.85;0.75;;;;;;;3.57;100.00;100987.78;6174486;28;20070;-72
2022/12/07 11:39:48;;;;;;;3.85;0.57;;;;;;;3.54;100.00;100985.22;6182802;28;20043;-74
2022/12/07 11:42:55;;;;;;;2.95;1.00;;;;;;;3.58;100.00;100983.44;6175266;28;20055;-72
2022/12/07 11:46:04;;;;;;;4.40;0.68;;;;;;;3.57;100.00;100977.38;6174659;28;20130;-72
2022/12/07 11:49:13;;;;;;;2.60;1.33;;;;;;;3.62;100.00;100966.88;6174080;28;20050;-72
2022/12/07 11:52:23;;;;;;;1.40;1.27;;;;;;;3.60;100.00;100968.69;6174481;28;20066;-73
2022/12/07 11:55:30;;;;;;;2.22;0.82;;;;;;;3.66;100.00;100969.38;6173994;28;20050;-73
2022/12/07 11:58:44;;;;;;;4.10;1.00;;;;;;;3.71;100.00;100966.69;6174184;28;20054;-72
2022/12/07 12:01:55;;;;;;;2.22;1.15;;;;;;;3.71;100.00;100969.28;6174274;28;20046;-73
2022/12/07 12:05:13;;;;;;;11.30;1.40;;;;;;;3.87;100.00;100965.47;6174058;28;20061;-72
2022/12/07 12:08:19;;;;;;;9.00;1.10;;;;;;;4.06;100.00;100963.31;6174004;28;20522;-74
2022/12/07 12:11:37;;;;;;;4.57;0.80;;;;;;;4.10;100.00;100971.91;6173767;28;20073;-74
2022/12/07 12:14:49;;;;;;;4.35;0.70;;;;;;;4.15;100.00;100962.25;6173890;28;20051;-72
2022/12/07 12:18:13;;;;;;;1.10;0.65;;;;;;;4.18;100.00;100962.16;6174051;28;20050;-73
2022/12/07 12:21:18;;;;;;;9.38;1.90;;;;;;;4.01;100.00;100959.97;6173849;28;20065;-71
2022/12/07 12:24:25;;;;;;;4.75;0.95;;;;;;;3.97;100.00;100958.31;6173554;28;20443;-73
2022/12/07 12:27:31;;;;;;;2.50;0.70;;;;;;;3.91;100.00;100946.34;6173963;28;20058;-73
2022/12/07 12:30:35;;;;;;;6.40;1.45;;;;;;;3.91;100.00;100948.06;6173422;28;20050;-72
2022/12/07 12:33:43;;;;;;;2.25;1.00;;;;;;;3.83;100.00;100940.44;6178644;28;20421;-73
2022/12/07 12:36:47;;;;;;;1.70;0.60;;;;;;;3.82;100.00;100943.94;6183627;28;20054;-71
2022/12/07 12:40:21;;;;;;;0.63;0.57;;;;;;;3.76;100.00;100944.91;6185132;28;20050;-73
2022/12/07 12:43:50;;;;;;;0.57;0.57;;;;;;;3.73;100.00;100934.59;6190276;28;20054;-73
2022/12/07 12:46:54;;;;;;;1.05;0.60;;;;;;;3.77;100.00;100930.16;6197751;28;20057;-73
2022/12/07 12:50:17;;;;;;;1.10;0.70;;;;;;;3.77;100.00;100918.06;6197478;28;20046;-73
2022/12/07 12:53:23;;;;;;;2.00;0.70;;;;;;;3.74;100.00;100918.09;6197546;28;20074;-73
2022/12/07 12:56:40;;;;;;;1.65;0.70;;;;;;;3.75;100.00;100921.56;6197958;28;20054;-73
2022/12/07 12:59:43;;;;;;;6.30;1.23;;;;;;;3.71;100.00;100914.72;6197347;28;20046;-72
2022/12/07 13:02:49;;;;;;;1.23;0.85;;;;;;;3.72;100.00;100919.00;6197614;28;20077;-73
2022/12/07 13:06:19;;;;;;;0.73;0.35;;;;;;;3.78;100.00;100927.53;6197462;28;20557;-72
2022/12/07 13:09:24;;;;;;;6.45;0.75;;;;;;;3.80;100.00;100925.75;6197316;28;20046;-72
2022/12/07 13:12:26;;;;;;;9.43;1.42;;;;;;;3.78;100.00;100924.94;6197254;28;20058;-72
2022/12/07 13:15:36;;;;;;;4.97;1.23;;;;;;;3.81;100.00;100919.69;6197201;28;20046;-72
2022/12/07 13:18:39;;;;;;;0.80;0.40;;;;;;;3.88;100.00;100919.53;6197196;28;20046;-72
2022/12/07 13:21:45;;;;;;;2.83;0.30;;;;;;;3.88;100.00;100915.19;6200263;28;20050;-72
2022/12/07 13:24:47;;;;;;;1.40;1.05;;;;;;;3.88;100.00;100907.41;6201759;28;20073;-72
2022/12/07 13:27:56;;;;;;;2.15;0.50;;;;;;;3.87;100.00;100915.25;6201639;28;20054;-71
2022/12/07 13:31:12;;;;;;;0.70;0.57;;;;;;;3.90;100.00;100907.34;6201339;28;20486;-72
2022/12/07 13:34:31;;;;;;;12.20;0.80;;;;;;;3.89;100.00;100909.09;6201688;28;20058;-72
2022/12/07 13:37:34;;;;;;;3.30;0.65;;;;;;;3.83;100.00;100913.59;6201294;28;20046;-72
2022/12/07 13:40:37;;;;;;;0.38;0.20;;;;;;;3.78;100.00;100895.50;6201236;28;20490;-73
2022/12/07 13:43:45;;;;;;;1.25;0.65;;;;;;;3.77;100.00;100899.84;6201101;28;20058;-72
2022/12/07 13:46:53;;;;;;;1.70;0.95;;;;;;;3.70;100.00;100898.28;6201326;28;20054;-73
2022/12/07 13:49:56;;;;;;;2.20;0.65;;;;;;;3.66;100.00;100896.63;6200805;28;20514;-73
2022/12/07 13:53:00;;;;;;;7.90;0.60;;;;;;;3.66;100.00;100887.97;6201055;28;20486;-73
2022/12/07 13:56:02;;;;;;;0.57;0.43;;;;;;;3.65;100.00;100892.31;6192913;28;20402;-73
2022/12/07 13:59:06;;;;;;;3.38;0.52;;;;;;;3.64;100.00;100888.03;6187470;28;20042;-73
2022/12/07 14:02:19;;;;;;;2.85;0.60;;;;;;;3.59;100.00;100882.06;6177098;28;20085;-73
2022/12/07 14:05:26;;;;;;;0.75;0.40;;;;;;;3.56;100.00;100893.38;6176453;28;20050;-72
2022/12/07 14:08:31;;;;;;;0.77;0.40;;;;;;;3.48;100.00;100884.91;6176269;28;20050;-72
2022/12/07 14:11:32;;;;;;;2.28;0.88;;;;;;;3.43;100.00;100891.94;6176482;28;20054;-73
2022/12/07 14:14:34;;;;;;;0.55;0.55;;;;;;;3.47;100.00;100898.78;6176183;28;20050;-73
2022/12/07 14:17:35;;;;;;;0.80;0.52;;;;;;;3.49;100.00;100901.34;6176414;28;20502;-72
2022/12/07 14:20:38;;;;;;;2.08;0.40;;;;;;;3.53;100.00;100900.38;6176103;28;20046;-72
2022/12/07 14:23:42;;;;;;;1.27;0.65;;;;;;;3.42;100.00;100894.56;6183036;28;20054;-72